Fairbanks, Alaska
Current Conditions -  °F | °C
As of 6:30 AM on Friday 19 Dec 2014 (Local Time) from PAFB Reporting Station
Clear Clear  
Wind Chill: -8°   Ceiling: Unl
Heat Index: -8°   Visibility: 13mi
Dew Point: -17°   Wind: 0mph
Humidity: 65%   Direction: NA
Pressure: 29.32"   Gusts: NA
Location:  64.85°N, 147.72°W
Report Text: PAFB 191530Z 00000KT 13SM CLR M22/M27 A2932 RMK FIRST
Loading
Personal Weather Stations






























Interactive Weather Map New forecast layout! Learn more

10-Day Weather Forecast

Advertisements
Track Severe Weather on mobile